Time;durP1;ratioP1;P1;durP2;ratioP2;P2;SDS_P1;SDS_P2;PMS_P1;PMS_P2;Temp;Humidity;BMP_temperature;BMP_pressure;BME280_temperature;BME280_humidity;BME280_pressure;Samples;Min_cycle;Max_cycle;Signal;HPM_P1;HPM_P2
2022/09/26 00:01:20;;;;;;;0.10;0.10;;;;;;;9.40;100.00;100872.78;5055634;28;20024;-69
2022/09/26 00:03:48;;;;;;;0.00;0.00;;;;;;;9.55;100.00;100900.31;5051422;28;20115;-69
2022/09/26 00:06:16;;;;;;;0.10;0.10;;;;;;;9.58;100.00;100894.72;5052544;28;20112;-69
2022/09/26 00:08:42;;;;;;;0.10;0.10;;;;;;;9.61;100.00;100888.28;5060720;28;20032;-69
2022/09/26 00:11:08;;;;;;;0.10;0.10;;;;;;;9.68;100.00;100884.19;5055698;28;20111;-71
2022/09/26 00:13:36;;;;;;;0.10;0.10;;;;;;;9.65;100.00;100879.03;5048108;28;20112;-69
2022/09/26 00:16:02;;;;;;;0.10;0.10;;;;;;;9.78;100.00;100883.53;5054865;28;20246;-69
2022/09/26 00:18:27;;;;;;;0.10;0.10;;;;;;;9.82;100.00;100884.97;5047861;28;20414;-69
2022/09/26 00:20:52;;;;;;;0.10;0.10;;;;;;;9.84;100.00;100883.91;5060737;28;20040;-72
2022/09/26 00:23:18;;;;;;;0.10;0.10;;;;;;;9.83;100.00;100876.84;5057836;28;20027;-69
2022/09/26 00:25:47;;;;;;;0.10;0.10;;;;;;;9.83;100.00;100870.59;5048356;28;20427;-70
2022/09/26 00:28:13;;;;;;;0.10;0.10;;;;;;;9.86;100.00;100860.53;5056710;28;20084;-70
2022/09/26 00:30:39;;;;;;;0.10;0.10;;;;;;;9.88;100.00;100847.84;5055435;28;20033;-70
2022/09/26 00:33:04;;;;;;;0.10;0.10;;;;;;;10.05;100.00;100859.13;5056689;28;20440;-69
2022/09/26 00:35:29;;;;;;;0.00;0.00;;;;;;;9.94;100.00;100856.38;5049795;28;20449;-69
2022/09/26 00:37:54;;;;;;;0.10;0.10;;;;;;;9.99;100.00;100855.09;5050513;28;20380;-70
2022/09/26 00:40:25;;;;;;;0.10;0.10;;;;;;;9.96;100.00;100843.72;5049225;28;20068;-70
2022/09/26 00:42:51;;;;;;;0.10;0.10;;;;;;;10.10;100.00;100840.00;5047392;28;20497;-69
2022/09/26 00:45:16;;;;;;;0.00;0.00;;;;;;;10.01;100.00;100842.41;5055903;28;20032;-70
2022/09/26 00:47:58;;;;;;;0.10;0.10;;;;;;;10.03;100.00;100842.28;5055753;28;20020;-69
2022/09/26 00:50:36;;;;;;;0.10;0.10;;;;;;;10.05;100.00;100829.63;5053233;28;20029;-69
2022/09/26 00:53:06;;;;;;;0.10;0.10;;;;;;;10.13;100.00;100823.66;5052951;28;20075;-69
2022/09/26 00:55:35;;;;;;;0.10;0.10;;;;;;;10.06;100.00;100818.75;5048699;28;20439;-69
2022/09/26 00:58:09;;;;;;;0.10;0.10;;;;;;;10.03;100.00;100816.34;5048160;28;20070;-69
2022/09/26 01:00:34;;;;;;;0.10;0.10;;;;;;;10.13;100.00;100816.50;5057521;28;20193;-69
2022/09/26 01:03:00;;;;;;;0.10;0.10;;;;;;;10.04;100.00;100795.72;5047892;28;20066;-69
2022/09/26 01:05:25;;;;;;;0.00;0.00;;;;;;;10.13;100.00;100805.75;5044850;28;20082;-69
2022/09/26 01:07:51;;;;;;;0.10;0.10;;;;;;;10.20;100.00;100800.78;5052629;28;20036;-70
2022/09/26 01:10:17;;;;;;;0.10;0.10;;;;;;;10.18;100.00;100783.94;5054825;28;20036;-68
2022/09/26 01:12:42;;;;;;;0.10;0.10;;;;;;;10.15;100.00;100786.84;5051284;28;20036;-68
2022/09/26 01:15:08;;;;;;;0.10;0.10;;;;;;;10.10;100.00;100779.16;5052602;28;20383;-69
2022/09/26 01:17:36;;;;;;;0.10;0.10;;;;;;;10.26;100.00;100786.88;5051944;28;20135;-69
2022/09/26 01:20:12;;;;;;;0.10;0.10;;;;;;;10.14;100.00;100763.69;5058853;28;20024;-68
2022/09/26 01:23:15;;;;;;;0.10;0.10;;;;;;;10.11;100.00;100762.09;5049536;28;20024;-68
2022/09/26 01:25:49;;;;;;;0.10;0.10;;;;;;;10.15;100.00;100754.66;5057024;28;20043;-69
2022/09/26 01:28:26;;;;;;;0.10;0.10;;;;;;;10.15;100.00;100751.97;5050685;28;20047;-68
2022/09/26 01:30:59;;;;;;;0.10;0.10;;;;;;;10.18;100.00;100741.00;5083201;22;20044;-68
2022/09/26 01:33:41;;;;;;;0.10;0.10;;;;;;;10.13;100.00;100737.81;5085371;28;20395;-68
2022/09/26 01:36:22;;;;;;;0.10;0.10;;;;;;;10.20;100.00;100731.00;5073525;28;20112;-68
2022/09/26 01:39:13;;;;;;;0.05;0.05;;;;;;;10.17;100.00;100726.75;5079923;28;20058;-68
2022/09/26 01:42:06;;;;;;;0.10;0.10;;;;;;;10.26;100.00;100714.44;5080174;28;20030;-71
2022/09/26 01:44:43;;;;;;;0.10;0.10;;;;;;;10.18;100.00;100712.34;5077179;28;20174;-68
2022/09/26 01:47:20;;;;;;;0.10;0.10;;;;;;;10.21;100.00;100700.53;5077580;28;20072;-68
2022/09/26 01:50:15;;;;;;;0.10;0.10;;;;;;;10.28;100.00;100703.56;5080590;28;20028;-68
2022/09/26 01:53:15;;;;;;;0.10;0.10;;;;;;;10.34;100.00;100697.72;5078930;28;20400;-68
2022/09/26 01:55:47;;;;;;;0.10;0.10;;;;;;;10.37;100.00;100689.44;5075176;28;20071;-68
2022/09/26 01:58:19;;;;;;;0.00;0.00;;;;;;;10.19;100.00;100663.09;5061728;28;20039;-69
2022/09/26 02:00:46;;;;;;;0.10;0.10;;;;;;;10.27;100.00;100657.13;5076669;28;20050;-68
2022/09/26 02:03:14;;;;;;;0.08;0.08;;;;;;;10.34;100.00;100676.25;5079765;28;20039;-69
2022/09/26 02:05:51;;;;;;;0.00;0.00;;;;;;;10.33;100.00;100670.03;5082261;28;20199;-71
2022/09/26 02:08:23;;;;;;;0.10;0.10;;;;;;;10.33;100.00;100666.50;5088730;28;20754;-69
2022/09/26 02:10:51;;;;;;;0.10;0.10;;;;;;;10.25;100.00;100664.44;5083365;28;20475;-70
2022/09/26 02:13:22;;;;;;;0.08;0.08;;;;;;;10.23;100.00;100655.66;5088383;28;20036;-69
2022/09/26 02:15:51;;;;;;;0.10;0.10;;;;;;;10.39;100.00;100651.75;5080515;28;20481;-69
2022/09/26 02:18:20;;;;;;;0.05;0.05;;;;;;;10.19;100.00;100651.50;5094735;28;20433;-68
2022/09/26 02:20:50;;;;;;;0.05;0.05;;;;;;;10.40;100.00;100645.41;5081459;28;20032;-69
2022/09/26 02:23:16;;;;;;;0.00;0.00;;;;;;;10.33;100.00;100642.34;5088698;28;20031;-68
2022/09/26 02:25:41;;;;;;;0.10;0.10;;;;;;;10.16;100.00;100628.47;5086898;28;20304;-69
2022/09/26 02:28:07;;;;;;;0.10;0.10;;;;;;;10.31;100.00;100630.88;5088399;28;20028;-68
2022/09/26 02:30:32;;;;;;;0.10;0.10;;;;;;;9.94;100.00;100585.50;5084241;28;20039;-69
2022/09/26 02:32:57;;;;;;;0.10;0.10;;;;;;;10.23;100.00;100609.16;5075512;28;20028;-69
2022/09/26 02:38:07;;;;;;;0.10;0.10;;;;;;;10.29;100.00;100614.03;5084694;28;20089;-69
2022/09/26 02:41:05;;;;;;;0.10;0.10;;;;;;;10.26;100.00;100604.41;5083021;28;20028;-68
2022/09/26 02:43:52;;;;;;;0.10;0.10;;;;;;;10.34;100.00;100598.44;5076305;28;20048;-69
2022/09/26 02:46:39;;;;;;;0.10;0.10;;;;;;;10.45;98.76;100595.78;5076905;28;20101;-72
2022/09/26 02:49:29;;;;;;;0.10;0.10;;;;;;;10.52;98.38;100596.13;5079916;28;20027;-71
2022/09/26 02:52:16;;;;;;;0.08;0.08;;;;;;;10.46;98.96;100588.56;5079369;28;20024;-68
2022/09/26 02:54:43;;;;;;;0.10;0.10;;;;;;;10.50;98.69;100582.81;5077471;28;20116;-68
2022/09/26 02:57:25;;;;;;;0.10;0.10;;;;;;;10.52;96.88;100571.97;5079248;28;20035;-68
2022/09/26 03:00:06;;;;;;;0.08;0.08;;;;;;;10.43;97.80;100570.03;5092950;28;20595;-69
2022/09/26 03:02:38;;;;;;;0.10;0.10;;;;;;;10.52;97.41;100580.00;5075625;28;20037;-69
2022/09/26 03:05:09;;;;;;;0.10;0.10;;;;;;;10.70;96.52;100576.78;5055404;28;20463;-70
2022/09/26 03:07:58;;;;;;;0.10;0.10;;;;;;;10.71;95.79;100578.50;5078666;28;20405;-70
2022/09/26 03:10:25;;;;;;;0.10;0.10;;;;;;;10.60;95.95;100565.97;5078305;28;20028;-69
2022/09/26 03:12:51;;;;;;;0.10;0.10;;;;;;;10.53;96.16;100560.25;5072728;28;20033;-68
2022/09/26 03:15:16;;;;;;;0.00;0.00;;;;;;;10.63;95.98;100557.66;5071285;28;20032;-76
2022/09/26 03:17:46;;;;;;;0.10;0.10;;;;;;;10.50;95.65;100561.34;5081481;28;20132;-70
2022/09/26 03:20:17;;;;;;;0.10;0.10;;;;;;;10.56;95.50;100562.69;5082480;28;20024;-69
2022/09/26 03:22:43;;;;;;;0.10;0.10;;;;;;;10.45;96.71;100554.66;5078583;28;20016;-67
2022/09/26 03:25:13;;;;;;;0.10;0.10;;;;;;;10.41;97.72;100548.69;5073838;28;20031;-67
2022/09/26 03:27:42;;;;;;;0.10;0.10;;;;;;;10.42;97.04;100542.34;5086567;28;20511;-68
2022/09/26 03:30:09;;;;;;;0.10;0.10;;;;;;;10.33;98.54;100549.25;5081849;28;20024;-68
2022/09/26 03:32:34;;;;;;;0.08;0.08;;;;;;;10.21;99.03;100548.44;5080369;28;20031;-68
2022/09/26 03:34:59;;;;;;;0.10;0.10;;;;;;;10.18;100.00;100523.69;5087816;28;20090;-68
2022/09/26 03:37:25;;;;;;;0.17;0.17;;;;;;;10.02;99.69;100516.03;5084221;28;20594;-67
2022/09/26 03:39:50;;;;;;;0.10;0.10;;;;;;;10.06;99.79;100504.91;5088733;28;20058;-68
2022/09/26 03:42:16;;;;;;;0.10;0.10;;;;;;;10.05;100.00;100518.47;5090614;28;20085;-69
2022/09/26 03:44:42;;;;;;;0.00;0.00;;;;;;;10.21;99.68;100518.06;5086004;28;20032;-67
2022/09/26 03:47:08;;;;;;;0.05;0.05;;;;;;;10.27;97.81;100504.16;5081257;28;21784;-68
2022/09/26 03:49:35;;;;;;;0.10;0.10;;;;;;;10.17;98.70;100511.25;5081083;28;20085;-68
2022/09/26 03:52:00;;;;;;;0.10;0.10;;;;;;;10.17;98.65;100490.66;5085579;28;20035;-69
2022/09/26 03:54:26;;;;;;;0.10;0.10;;;;;;;10.21;98.69;100505.50;5086303;28;20035;-69
2022/09/26 03:56:51;;;;;;;0.10;0.10;;;;;;;9.96;99.92;100470.94;5081018;28;20035;-67
2022/09/26 03:59:17;;;;;;;0.10;0.10;;;;;;;10.04;100.00;100493.50;5084728;28;20752;-69
2022/09/26 04:01:43;;;;;;;0.20;0.20;;;;;;;9.98;100.00;100487.75;5080533;28;20086;-66
2022/09/26 04:04:08;;;;;;;0.10;0.10;;;;;;;9.98;100.00;100491.28;5087971;28;20055;-68
2022/09/26 04:06:33;;;;;;;0.10;0.10;;;;;;;9.92;100.00;100480.22;5084500;28;20040;-71
2022/09/26 04:08:59;;;;;;;0.10;0.10;;;;;;;10.02;100.00;100486.53;5080429;28;20089;-68
2022/09/26 04:11:24;;;;;;;0.10;0.10;;;;;;;9.99;100.00;100478.72;5085974;28;20069;-68
2022/09/26 04:13:50;;;;;;;0.10;0.10;;;;;;;9.91;100.00;100471.31;5083639;28;20069;-68
2022/09/26 04:16:16;;;;;;;0.00;0.00;;;;;;;10.11;100.00;100464.31;5086019;28;20112;-68
2022/09/26 04:18:41;;;;;;;0.10;0.10;;;;;;;10.11;99.54;100463.47;5080755;28;21247;-68
2022/09/26 04:21:10;;;;;;;0.10;0.10;;;;;;;10.05;99.48;100454.09;5082989;28;20535;-69
2022/09/26 04:23:38;;;;;;;0.03;0.03;;;;;;;9.99;99.79;100444.72;5079923;27;20077;-67
2022/09/26 04:26:07;;;;;;;0.10;0.10;;;;;;;10.06;98.58;100437.03;5085146;28;20031;-67
2022/09/26 04:28:32;;;;;;;0.10;0.10;;;;;;;10.15;98.37;100424.69;5081538;28;20071;-67
2022/09/26 04:30:59;;;;;;;0.10;0.10;;;;;;;10.06;98.83;100410.19;5084864;28;20464;-68
2022/09/26 04:33:24;;;;;;;0.10;0.10;;;;;;;10.03;98.41;100423.84;5083024;28;20047;-70
2022/09/26 04:35:49;;;;;;;0.10;0.10;;;;;;;10.03;98.08;100403.28;5081900;28;20016;-69
2022/09/26 04:38:17;;;;;;;0.15;0.15;;;;;;;10.11;98.64;100394.56;5083966;28;20031;-69
2022/09/26 04:40:42;;;;;;;0.10;0.10;;;;;;;9.99;99.39;100401.81;5082126;28;20051;-70
2022/09/26 04:43:08;;;;;;;0.10;0.10;;;;;;;10.09;98.41;100399.22;5075958;28;20055;-66
2022/09/26 04:45:33;;;;;;;0.10;0.10;;;;;;;10.04;98.42;100383.50;5078511;28;20027;-70
2022/09/26 04:47:58;;;;;;;0.10;0.10;;;;;;;10.05;98.82;100390.59;5075399;28;20632;-69
2022/09/26 04:50:24;;;;;;;0.08;0.08;;;;;;;10.00;99.09;100394.59;5075816;28;20024;-67
2022/09/26 04:52:50;;;;;;;0.10;0.10;;;;;;;9.93;98.78;100378.19;5080453;28;20028;-68
2022/09/26 04:55:15;;;;;;;0.10;0.10;;;;;;;10.07;98.08;100369.00;5075856;28;20378;-69
2022/09/26 04:57:41;;;;;;;0.10;0.10;;;;;;;10.09;97.40;100368.84;5074874;28;20028;-68
2022/09/26 05:00:10;;;;;;;0.10;0.10;;;;;;;10.17;97.30;100361.88;5075064;28;20036;-68
2022/09/26 05:02:35;;;;;;;0.10;0.10;;;;;;;9.98;97.85;100345.59;5075212;28;20419;-72
2022/09/26 05:05:00;;;;;;;0.10;0.10;;;;;;;10.06;98.09;100357.38;5073873;28;20032;-68
2022/09/26 05:07:30;;;;;;;0.10;0.10;;;;;;;10.10;97.99;100341.91;5077755;28;20020;-69
2022/09/26 05:09:55;;;;;;;0.10;0.10;;;;;;;10.32;97.19;100342.78;5077132;28;20046;-68
2022/09/26 05:12:20;;;;;;;0.10;0.10;;;;;;;9.98;98.85;100343.78;5076591;28;20024;-69
2022/09/26 05:14:46;;;;;;;0.00;0.00;;;;;;;10.00;99.02;100336.47;5073224;28;20157;-68
2022/09/26 05:17:11;;;;;;;0.10;0.10;;;;;;;9.73;100.00;100318.16;5078801;28;20111;-70
2022/09/26 05:19:37;;;;;;;0.03;0.03;;;;;;;9.66;100.00;100320.50;5080142;28;20508;-69
2022/09/26 05:22:03;;;;;;;0.10;0.10;;;;;;;9.45;100.00;100297.16;5081713;28;20032;-70
2022/09/26 05:27:14;;;;;;;0.10;0.10;;;;;;;9.45;100.00;100331.13;5078992;28;20392;-67
2022/09/26 05:29:39;;;;;;;0.10;0.10;;;;;;;9.39;100.00;100335.16;5047686;28;1038252;-68
2022/09/26 05:32:05;;;;;;;0.10;0.10;;;;;;;9.42;100.00;100318.84;5082824;28;20039;-67
2022/09/26 05:34:31;;;;;;;0.10;0.10;;;;;;;9.48;100.00;100308.59;5077164;28;20034;-69
2022/09/26 05:36:57;;;;;;;0.10;0.10;;;;;;;9.22;100.00;100291.00;5078725;28;20118;-69
2022/09/26 05:42:07;;;;;;;0.10;0.10;;;;;;;9.17;100.00;100281.63;5081529;28;20063;-70
2022/09/26 05:44:32;;;;;;;0.10;0.10;;;;;;;9.27;100.00;100304.03;5071869;28;20127;-68
2022/09/26 05:46:57;;;;;;;0.10;0.10;;;;;;;9.24;100.00;100262.25;5080566;28;20024;-69
2022/09/26 05:49:24;;;;;;;0.10;0.10;;;;;;;9.41;100.00;100278.75;5084387;28;20055;-78
2022/09/26 05:51:49;;;;;;;0.10;0.10;;;;;;;9.63;100.00;100269.81;5079299;28;20151;-71
2022/09/26 05:54:15;;;;;;;0.05;0.05;;;;;;;9.44;100.00;100279.38;5082632;28;20456;-72
2022/09/26 05:56:41;;;;;;;0.10;0.10;;;;;;;9.35;100.00;100277.44;5080037;28;20034;-68
2022/09/26 05:59:06;;;;;;;0.10;0.10;;;;;;;9.43;100.00;100276.81;5087987;28;20032;-69
2022/09/26 06:01:32;;;;;;;0.00;0.00;;;;;;;9.48;100.00;100273.78;5086837;28;20517;-69
2022/09/26 06:03:57;;;;;;;0.10;0.10;;;;;;;9.42;100.00;100270.63;5084931;28;20024;-72
2022/09/26 06:06:23;;;;;;;0.10;0.10;;;;;;;9.38;100.00;100234.34;5079737;28;20020;-71
2022/09/26 06:08:49;;;;;;;0.10;0.10;;;;;;;9.44;100.00;100279.38;5082580;28;20034;-70
2022/09/26 06:11:17;;;;;;;0.10;0.10;;;;;;;9.61;100.00;100277.13;5087273;28;22353;-69
2022/09/26 06:13:44;;;;;;;0.10;0.10;;;;;;;9.48;100.00;100263.91;5083373;28;20028;-71
2022/09/26 06:16:12;;;;;;;0.10;0.10;;;;;;;9.32;100.00;100224.13;5080907;28;20166;-71
2022/09/26 06:18:38;;;;;;;0.10;0.10;;;;;;;9.44;100.00;100238.31;5077449;28;20558;-69
2022/09/26 06:21:05;;;;;;;0.10;0.10;;;;;;;9.50;100.00;100245.03;5084558;28;20143;-74
2022/09/26 06:23:31;;;;;;;0.10;0.10;;;;;;;9.46;100.00;100228.34;5083578;28;20150;-71
2022/09/26 06:25:57;;;;;;;0.10;0.10;;;;;;;9.55;100.00;100224.03;5081379;28;20028;-68
2022/09/26 06:28:25;;;;;;;0.10;0.10;;;;;;;9.57;100.00;100222.94;5079207;28;20028;-68
2022/09/26 06:30:51;;;;;;;0.20;0.20;;;;;;;9.52;100.00;100198.34;5082901;28;20024;-69
2022/09/26 06:33:16;;;;;;;0.10;0.10;;;;;;;9.35;100.00;100180.16;5085773;28;20073;-70
2022/09/26 06:35:41;;;;;;;0.10;0.10;;;;;;;9.55;100.00;100186.50;5082411;28;20474;-70
2022/09/26 06:38:07;;;;;;;0.10;0.10;;;;;;;9.60;100.00;100190.53;5083031;28;20519;-70
2022/09/26 06:40:32;;;;;;;0.32;0.10;;;;;;;9.95;100.00;100195.69;5079099;28;20044;-67
2022/09/26 06:42:58;;;;;;;0.10;0.10;;;;;;;9.76;100.00;100191.91;5084070;28;20224;-69
2022/09/26 06:45:25;;;;;;;0.10;0.10;;;;;;;9.93;100.00;100186.94;5081099;28;20036;-75
2022/09/26 06:47:51;;;;;;;0.10;0.10;;;;;;;9.79;100.00;100180.91;5083416;28;20021;-68
2022/09/26 06:50:16;;;;;;;0.08;0.08;;;;;;;9.83;100.00;100170.78;5078989;28;20040;-70
2022/09/26 06:52:42;;;;;;;0.10;0.10;;;;;;;9.86;100.00;100166.00;5080701;28;20442;-70
2022/09/26 06:55:09;;;;;;;0.10;0.10;;;;;;;9.82;100.00;100164.56;5082623;28;20035;-71
2022/09/26 06:57:39;;;;;;;0.10;0.10;;;;;;;9.90;100.00;100163.91;5074290;28;20044;-69
2022/09/26 07:00:12;;;;;;;0.10;0.10;;;;;;;9.86;100.00;100149.94;5071941;28;20032;-68
2022/09/26 07:02:37;;;;;;;0.10;0.10;;;;;;;9.88;100.00;100153.31;5086200;28;20062;-72
2022/09/26 07:05:04;;;;;;;0.10;0.10;;;;;;;9.80;100.00;100155.81;5078946;28;20063;-73
2022/09/26 07:07:29;;;;;;;0.10;0.10;;;;;;;9.81;100.00;100127.16;5077888;28;20381;-71
2022/09/26 07:09:55;;;;;;;0.10;0.10;;;;;;;9.80;100.00;100133.53;5083064;28;20028;-72
2022/09/26 07:12:21;;;;;;;0.10;0.10;;;;;;;10.08;100.00;100129.28;5088650;28;20382;-75
2022/09/26 07:14:46;;;;;;;0.10;0.10;;;;;;;10.10;100.00;100121.09;5084260;28;20038;-68
2022/09/26 07:17:15;;;;;;;0.10;0.10;;;;;;;9.84;100.00;100102.75;5082995;28;20366;-72
2022/09/26 07:19:41;;;;;;;0.10;0.10;;;;;;;9.77;100.00;100086.38;5088133;28;20024;-71
2022/09/26 07:22:06;;;;;;;0.10;0.10;;;;;;;10.04;100.00;100114.44;5086543;28;20479;-72
2022/09/26 07:24:33;;;;;;;0.10;0.10;;;;;;;10.03;100.00;100110.06;5082119;28;20424;-68
2022/09/26 07:26:58;;;;;;;0.10;0.10;;;;;;;10.12;100.00;100105.72;5075134;28;20051;-73
2022/09/26 07:29:23;;;;;;;0.10;0.10;;;;;;;10.05;100.00;100110.78;5080682;28;20501;-71
2022/09/26 07:31:48;;;;;;;0.10;0.10;;;;;;;10.15;100.00;100087.53;5080026;28;20548;-67
2022/09/26 07:34:14;;;;;;;0.10;0.10;;;;;;;10.13;100.00;100094.88;5087157;28;20059;-71
2022/09/26 07:36:39;;;;;;;0.10;0.10;;;;;;;10.19;100.00;100069.31;5075799;28;20027;-70
2022/09/26 07:39:05;;;;;;;0.10;0.10;;;;;;;10.31;100.00;100086.16;5080274;28;20363;-71
2022/09/26 07:41:30;;;;;;;0.10;0.10;;;;;;;10.08;100.00;100085.50;5074174;28;20093;-72
2022/09/26 07:43:56;;;;;;;0.10;0.10;;;;;;;10.29;100.00;100088.13;5072691;28;20397;-71
2022/09/26 07:51:53;;;;;;;0.08;0.08;;;;;;;10.38;100.00;100083.78;5080008;28;20039;-70
2022/09/26 07:54:18;;;;;;;0.10;0.10;;;;;;;10.49;100.00;100081.03;5082547;28;20369;-69
2022/09/26 07:56:44;;;;;;;0.10;0.10;;;;;;;10.37;100.00;100082.94;5075332;28;20478;-69
2022/09/26 07:59:09;;;;;;;0.10;0.10;;;;;;;10.48;100.00;100092.75;5083062;28;20047;-76
2022/09/26 08:01:36;;;;;;;0.10;0.10;;;;;;;10.52;100.00;100074.53;5083070;28;20058;-73
2022/09/26 08:04:02;;;;;;;0.10;0.10;;;;;;;10.41;100.00;100078.19;5079085;28;20031;-72
2022/09/26 08:06:31;;;;;;;0.10;0.10;;;;;;;10.54;100.00;100077.94;5078846;28;20436;-73
2022/09/26 08:08:57;;;;;;;0.10;0.10;;;;;;;10.56;100.00;100063.41;5080510;28;20111;-70
2022/09/26 08:11:22;;;;;;;0.10;0.10;;;;;;;10.49;100.00;100067.63;5078702;28;20032;-73
2022/09/26 08:13:48;;;;;;;0.10;0.10;;;;;;;10.54;100.00;100067.19;5090594;28;20051;-70
2022/09/26 08:16:23;;;;;;;0.10;0.10;;;;;;;10.58;100.00;100050.69;5077543;28;20024;-69
2022/09/26 08:18:50;;;;;;;0.10;0.10;;;;;;;10.57;100.00;100054.34;5089744;27;20028;-73
2022/09/26 08:21:16;;;;;;;0.10;0.10;;;;;;;10.71;100.00;100044.19;5078270;28;20062;-70
2022/09/26 08:23:42;;;;;;;0.10;0.10;;;;;;;10.68;100.00;100049.84;5083886;28;20015;-68
2022/09/26 08:26:07;;;;;;;0.00;0.00;;;;;;;10.66;100.00;100044.63;5074696;28;20133;-74
2022/09/26 08:28:33;;;;;;;0.10;0.10;;;;;;;10.62;100.00;100043.19;5077770;28;20066;-70
2022/09/26 08:30:59;;;;;;;0.10;0.10;;;;;;;10.64;100.00;100042.06;5086080;28;20035;-70
2022/09/26 08:33:25;;;;;;;0.10;0.10;;;;;;;10.54;100.00;100003.63;5079651;28;20027;-72
2022/09/26 08:35:50;;;;;;;0.10;0.10;;;;;;;10.70;100.00;100037.97;5062899;28;20422;-71
2022/09/26 08:38:16;;;;;;;0.10;0.10;;;;;;;10.72;100.00;100027.09;5080780;28;20147;-69
2022/09/26 08:41:02;;;;;;;0.10;0.10;;;;;;;10.62;100.00;100010.97;5078641;28;20098;-71
2022/09/26 08:43:43;;;;;;;0.10;0.10;;;;;;;10.83;100.00;100021.59;5075796;28;20028;-71
2022/09/26 08:49:21;;;;;;;0.10;0.10;;;;;;;10.88;100.00;100030.06;5075204;28;20097;-71
2022/09/26 08:51:50;;;;;;;0.10;0.10;;;;;;;10.94;100.00;100025.97;5075393;28;20200;-74
2022/09/26 08:54:27;;;;;;;0.10;0.10;;;;;;;10.80;100.00;100014.66;5081692;28;20028;-72
2022/09/26 08:56:56;;;;;;;0.10;0.10;;;;;;;10.93;100.00;100022.41;5079255;28;20618;-70
2022/09/26 08:59:34;;;;;;;0.10;0.10;;;;;;;10.93;100.00;100019.75;5086236;28;20020;-72
2022/09/26 09:02:04;;;;;;;0.10;0.10;;;;;;;10.89;100.00;100021.00;5085216;28;20048;-71
2022/09/26 09:04:43;;;;;;;0.10;0.10;;;;;;;10.95;100.00;100033.03;5091145;28;20803;-72
2022/09/26 09:07:23;;;;;;;0.10;0.10;;;;;;;10.84;100.00;99996.44;5079860;28;20023;-71
2022/09/26 09:09:51;;;;;;;0.10;0.10;;;;;;;11.03;100.00;100011.66;5084348;28;20024;-76
2022/09/26 09:12:19;;;;;;;0.10;0.10;;;;;;;10.93;100.00;100008.16;5078958;28;20020;-71
2022/09/26 09:14:55;;;;;;;0.10;0.10;;;;;;;10.82;100.00;99986.81;5085328;28;20042;-70
2022/09/26 09:17:33;;;;;;;0.10;0.10;;;;;;;10.73;100.00;99997.41;5074911;28;20052;-71
2022/09/26 09:19:59;;;;;;;0.00;0.00;;;;;;;10.64;100.00;99999.09;5075324;28;20020;-75
2022/09/26 09:22:45;;;;;;;0.10;0.10;;;;;;;10.60;100.00;100004.91;5084042;28;20198;-71
2022/09/26 09:25:52;;;;;;;0.10;0.10;;;;;;;10.55;100.00;99993.72;5075255;28;20074;-72
2022/09/26 09:28:35;;;;;;;0.10;0.10;;;;;;;10.39;100.00;99994.28;5070664;28;20072;-73
2022/09/26 09:31:05;;;;;;;0.10;0.10;;;;;;;10.14;100.00;99954.41;5090011;28;20301;-73
2022/09/26 09:33:40;;;;;;;0.10;0.10;;;;;;;10.28;100.00;99981.81;5074402;28;20036;-70
2022/09/26 09:36:10;;;;;;;0.10;0.10;;;;;;;10.28;100.00;99957.66;5077521;28;20043;-70
2022/09/26 09:38:38;;;;;;;0.10;0.10;;;;;;;10.40;100.00;99958.41;5085863;28;20027;-75
2022/09/26 09:41:07;;;;;;;0.10;0.10;;;;;;;10.41;100.00;99969.00;5082556;28;20066;-70
2022/09/26 09:43:40;;;;;;;0.10;0.10;;;;;;;10.45;100.00;99957.03;5079261;28;20468;-71
2022/09/26 09:46:14;;;;;;;0.10;0.10;;;;;;;10.35;100.00;99929.28;5083284;28;20089;-71
2022/09/26 09:48:39;;;;;;;0.10;0.10;;;;;;;10.51;100.00;99958.28;5081596;28;20477;-72
2022/09/26 09:51:08;;;;;;;0.10;0.10;;;;;;;10.61;100.00;99943.00;5081988;28;20043;-74
2022/09/26 09:53:45;;;;;;;0.10;0.10;;;;;;;10.56;100.00;99956.03;5080541;28;20107;-74
2022/09/26 09:56:25;;;;;;;0.10;0.10;;;;;;;10.58;100.00;99946.00;5057426;28;20451;-71
2022/09/26 09:59:11;;;;;;;0.10;0.10;;;;;;;10.65;100.00;99920.25;5075404;28;20485;-69
2022/09/26 10:01:40;;;;;;;0.10;0.10;;;;;;;10.57;100.00;99924.66;5079895;28;20040;-72
2022/09/26 10:04:19;;;;;;;0.10;0.10;;;;;;;10.64;100.00;99915.88;5079604;28;20024;-68
2022/09/26 10:06:47;;;;;;;0.10;0.10;;;;;;;10.67;100.00;99906.72;5075208;28;20032;-69
2022/09/26 10:09:37;;;;;;;0.17;0.17;;;;;;;10.78;100.00;99916.44;5077583;28;20032;-68
2022/09/26 10:12:29;;;;;;;0.10;0.10;;;;;;;10.73;100.00;99906.13;5073844;28;20036;-68
2022/09/26 10:14:59;;;;;;;0.10;0.10;;;;;;;10.72;100.00;99888.34;5077062;28;20032;-71
2022/09/26 10:17:24;;;;;;;0.10;0.10;;;;;;;10.75;100.00;99893.41;5074989;28;20045;-70
2022/09/26 10:19:50;;;;;;;0.10;0.10;;;;;;;10.74;100.00;99880.97;5075028;28;20020;-72
2022/09/26 10:22:23;;;;;;;0.10;0.10;;;;;;;10.86;100.00;99884.34;5073723;28;20438;-70
2022/09/26 10:24:49;;;;;;;0.10;0.10;;;;;;;10.90;100.00;99875.00;5083979;28;20024;-72
2022/09/26 10:27:36;;;;;;;0.10;0.10;;;;;;;10.95;100.00;99870.03;5078405;28;20035;-70
2022/09/26 10:30:17;;;;;;;0.10;0.10;;;;;;;11.03;100.00;99881.91;5086631;28;20024;-73
2022/09/26 10:32:45;;;;;;;0.20;0.20;;;;;;;10.79;100.00;99856.38;5077909;28;20051;-74
2022/09/26 10:35:17;;;;;;;0.10;0.10;;;;;;;11.04;100.00;99873.69;5075648;28;20024;-74
2022/09/26 10:38:08;;;;;;;0.00;0.00;;;;;;;10.97;100.00;99864.53;5080456;28;20028;-70
2022/09/26 10:40:45;;;;;;;0.10;0.10;;;;;;;10.98;100.00;99863.56;5077128;28;20037;-73
2022/09/26 10:43:34;;;;;;;0.20;0.20;;;;;;;10.78;100.00;99868.94;5091452;28;20170;-70
2022/09/26 10:46:01;;;;;;;0.10;0.10;;;;;;;10.64;100.00;99848.78;5074104;28;20416;-72
2022/09/26 10:48:48;;;;;;;0.10;0.10;;;;;;;10.66;100.00;99859.38;5080700;28;20054;-73
2022/09/26 10:51:22;;;;;;;0.10;0.10;;;;;;;10.68;100.00;99862.78;5078625;28;20146;-71
2022/09/26 10:53:51;;;;;;;0.10;0.10;;;;;;;10.68;100.00;99861.91;5073155;28;20501;-71
2022/09/26 10:56:25;;;;;;;0.10;0.10;;;;;;;10.70;100.00;99857.25;5079464;28;20451;-72
2022/09/26 10:58:56;;;;;;;;;;;;;;;10.82;100.00;99852.56;5077132;28;20028;-72
2022/09/26 11:01:25;;;;;;;0.10;0.10;;;;;;;10.72;100.00;99866.00;5077763;28;20385;-70
2022/09/26 11:03:54;;;;;;;0.10;0.10;;;;;;;10.73;100.00;99836.31;5099893;28;20025;-70
2022/09/26 11:06:21;;;;;;;0.10;0.10;;;;;;;10.80;100.00;99852.72;5086703;28;20063;-72
2022/09/26 11:08:51;;;;;;;0.10;0.10;;;;;;;10.75;100.00;99860.34;5085543;28;20028;-75
2022/09/26 11:11:16;;;;;;;0.10;0.10;;;;;;;10.69;100.00;99843.00;5088907;28;20148;-73
2022/09/26 11:13:54;;;;;;;0.10;0.10;;;;;;;10.53;100.00;99822.13;5084113;28;20734;-71
2022/09/26 11:16:19;;;;;;;0.10;0.10;;;;;;;10.65;100.00;99841.59;5080402;28;20024;-72
2022/09/26 11:18:56;;;;;;;0.10;0.10;;;;;;;10.54;100.00;99786.22;5076064;28;20379;-70
2022/09/26 11:21:37;;;;;;;0.10;0.10;;;;;;;10.60;100.00;99830.44;5083655;28;20040;-71
2022/09/26 11:24:14;;;;;;;0.10;0.10;;;;;;;10.48;100.00;99808.28;5073960;28;20020;-73
2022/09/26 11:27:18;;;;;;;0.10;0.10;;;;;;;10.64;100.00;99826.47;5071860;28;20399;-72
2022/09/26 11:29:55;;;;;;;0.20;0.20;;;;;;;10.60;100.00;99817.00;5085333;28;20082;-70
2022/09/26 11:32:27;;;;;;;0.10;0.10;;;;;;;10.60;100.00;99831.25;5083219;28;20038;-71
2022/09/26 11:34:53;;;;;;;0.10;0.10;;;;;;;10.50;100.00;99815.19;5079367;28;20030;-71
2022/09/26 11:37:40;;;;;;;0.10;0.10;;;;;;;10.62;100.00;99826.59;5082975;28;20028;-70
2022/09/26 11:40:20;;;;;;;0.10;0.10;;;;;;;10.66;100.00;99821.81;5073961;28;20029;-71
2022/09/26 11:42:53;;;;;;;0.10;0.10;;;;;;;10.60;100.00;99807.09;5081675;28;20020;-72
2022/09/26 11:45:51;;;;;;;0.10;0.10;;;;;;;10.63;100.00;99797.94;5078493;28;20127;-72
2022/09/26 11:48:36;;;;;;;0.10;0.10;;;;;;;10.55;100.00;99798.66;5080267;28;20035;-74
2022/09/26 11:51:18;;;;;;;0.10;0.10;;;;;;;10.54;100.00;99806.84;5074992;28;20020;-72
2022/09/26 11:54:05;;;;;;;0.10;0.10;;;;;;;10.57;100.00;99806.56;5075647;28;20035;-73